Time;durP1;ratioP1;P1;durP2;ratioP2;P2;SDS_P1;SDS_P2;PMS_P1;PMS_P2;Temp;Humidity;BMP_temperature;BMP_pressure;BME280_temperature;BME280_humidity;BME280_pressure;Samples;Min_cycle;Max_cycle;Signal;HPM_P1;HPM_P2
2021/01/28 00:02:49;;;;;;;79.30;51.25;;;;;;;;;;5051923;28;20044;-74
2021/01/28 00:05:53;;;;;;;87.38;52.85;;;;;;;;;;5050985;28;20048;-73
2021/01/28 00:08:57;;;;;;;86.65;53.65;;;;;;;;;;5050910;28;20048;-73
2021/01/28 00:12:04;;;;;;;88.32;56.22;;;;;;;;;;5051756;28;20499;-74
2021/01/28 00:15:08;;;;;;;91.28;56.88;;;;;;;;;;5051315;28;20052;-73
2021/01/28 00:18:13;;;;;;;92.03;59.20;;;;;;;;;;5051567;28;20072;-73
2021/01/28 00:21:18;;;;;;;98.15;59.42;;;;;;;;;;5051566;28;20052;-73
2021/01/28 00:24:22;;;;;;;92.07;59.05;;;;;;;;;;5050732;28;20416;-73
2021/01/28 00:27:27;;;;;;;95.07;60.03;;;;;;;;;;5051446;28;20496;-73
2021/01/28 00:30:38;;;;;;;93.85;58.78;;;;;;;;;;5051204;28;20044;-73
2021/01/28 00:33:42;;;;;;;89.65;56.42;;;;;;;;;;5051048;28;20491;-73
2021/01/28 00:36:47;;;;;;;94.32;59.80;;;;;;;;;;5051243;28;20044;-74
2021/01/28 00:39:51;;;;;;;91.90;59.72;;;;;;;;;;5051080;28;20040;-74
2021/01/28 00:42:55;;;;;;;92.85;60.88;;;;;;;;;;5051013;28;20607;-73
2021/01/28 00:45:59;;;;;;;90.78;60.60;;;;;;;;;;5051088;28;20044;-73
2021/01/28 00:49:04;;;;;;;96.43;60.60;;;;;;;;;;5050943;28;20040;-73
2021/01/28 00:52:08;;;;;;;92.63;61.65;;;;;;;;;;5050572;28;20048;-73
2021/01/28 00:55:13;;;;;;;93.70;59.97;;;;;;;;;;5050828;28;20056;-73
2021/01/28 00:58:23;;;;;;;96.15;60.55;;;;;;;;;;5050379;28;20048;-73
2021/01/28 01:01:29;;;;;;;104.93;61.10;;;;;;;;;;5049882;28;20055;-73
2021/01/28 01:04:34;;;;;;;95.78;57.70;;;;;;;;;;5038695;28;20488;-73
2021/01/28 01:07:38;;;;;;;89.28;56.33;;;;;;;;;;5051088;28;20052;-73
2021/01/28 01:10:47;;;;;;;88.57;58.00;;;;;;;;;;5050851;28;20048;-73
2021/01/28 01:13:53;;;;;;;97.40;58.47;;;;;;;;;;5049751;28;20115;-73
2021/01/28 01:17:02;;;;;;;89.28;58.67;;;;;;;;;;5050154;28;20052;-73
2021/01/28 01:20:08;;;;;;;94.40;59.40;;;;;;;;;;5049979;28;20052;-73
2021/01/28 01:23:17;;;;;;;91.10;57.50;;;;;;;;;;5050867;28;20037;-73
2021/01/28 01:26:40;;;;;;;98.90;62.22;;;;;;;;;;5050830;28;20040;-73
2021/01/28 01:29:44;;;;;;;90.43;59.45;;;;;;;;;;5049722;28;20044;-73
2021/01/28 01:33:11;;;;;;;92.00;57.47;;;;;;;;;;5053623;28;20059;-73
2021/01/28 01:36:32;;;;;;;88.13;57.13;;;;;;;;;;5049803;28;20511;-73
2021/01/28 01:39:40;;;;;;;98.10;59.17;;;;;;;;;;5049945;28;20056;-73
2021/01/28 01:42:48;;;;;;;91.28;57.08;;;;;;;;;;5049488;28;20044;-73
2021/01/28 01:46:01;;;;;;;87.13;55.55;;;;;;;;;;5050095;28;20052;-73
2021/01/28 01:49:10;;;;;;;84.57;54.10;;;;;;;;;;5050169;28;20401;-73
2021/01/28 01:52:15;;;;;;;92.20;54.75;;;;;;;;;;5049867;28;20051;-73
2021/01/28 01:55:23;;;;;;;94.25;59.13;;;;;;;;;;5050674;28;20059;-74
2021/01/28 01:58:49;;;;;;;93.18;58.38;;;;;;;;;;5050161;28;20571;-73
2021/01/28 02:02:14;;;;;;;82.80;54.72;;;;;;;;;;5053649;28;20048;-73
2021/01/28 02:05:39;;;;;;;86.68;56.85;;;;;;;;;;5054301;28;20044;-73
2021/01/28 02:09:08;;;;;;;89.03;57.40;;;;;;;;;;5044962;28;20115;-73
2021/01/28 02:12:40;;;;;;;84.85;56.40;;;;;;;;;;5053355;28;20060;-73
2021/01/28 02:15:58;;;;;;;86.82;56.70;;;;;;;;;;5053261;28;20385;-73
2021/01/28 02:19:04;;;;;;;94.20;59.03;;;;;;;;;;5053655;28;20048;-73
2021/01/28 02:22:09;;;;;;;87.38;55.15;;;;;;;;;;5053077;28;20057;-73
2021/01/28 02:25:20;;;;;;;91.13;56.60;;;;;;;;;;5052961;28;20044;-73
2021/01/28 02:28:24;;;;;;;89.30;56.08;;;;;;;;;;5053074;28;20056;-73
2021/01/28 02:31:30;;;;;;;84.90;55.17;;;;;;;;;;5053604;28;20032;-74
2021/01/28 02:34:36;;;;;;;87.28;55.67;;;;;;;;;;5052851;28;20052;-73
2021/01/28 02:37:46;;;;;;;84.18;53.78;;;;;;;;;;5052790;28;20524;-73
2021/01/28 02:40:55;;;;;;;86.43;56.85;;;;;;;;;;5052661;28;20609;-73
2021/01/28 02:43:59;;;;;;;87.85;54.63;;;;;;;;;;5052475;28;20036;-73
2021/01/28 02:47:24;;;;;;;84.10;53.65;;;;;;;;;;5053166;28;20393;-74
2021/01/28 02:50:48;;;;;;;83.65;52.65;;;;;;;;;;5052900;28;20040;-73
2021/01/28 02:53:54;;;;;;;84.57;53.25;;;;;;;;;;5052315;28;20048;-73
2021/01/28 02:56:59;;;;;;;83.18;51.65;;;;;;;;;;5052191;28;20043;-73
2021/01/28 03:00:07;;;;;;;78.63;52.83;;;;;;;;;;5040621;28;20044;-73
2021/01/28 03:03:13;;;;;;;76.55;50.80;;;;;;;;;;5053109;28;20040;-73
2021/01/28 03:06:25;;;;;;;78.28;51.30;;;;;;;;;;5051816;28;20060;-73
2021/01/28 03:09:34;;;;;;;82.82;49.38;;;;;;;;;;5053032;28;20044;-73
2021/01/28 03:12:53;;;;;;;73.13;47.55;;;;;;;;;;5051769;28;20032;-73
2021/01/28 03:16:15;;;;;;;71.65;47.28;;;;;;;;;;5052029;28;20056;-73
2021/01/28 03:19:26;;;;;;;75.25;48.13;;;;;;;;;;5051740;28;20511;-73
2021/01/28 03:22:37;;;;;;;;;;;;;;;;;;5052285;28;20041;-73
2021/01/28 03:26:04;;;;;;;63.85;41.90;;;;;;;;;;5052726;28;20268;-73
2021/01/28 03:29:11;;;;;;;72.88;47.08;;;;;;;;;;5051743;28;20040;-73
2021/01/28 03:32:14;;;;;;;68.20;46.42;;;;;;;;;;5051391;28;20508;-73
2021/01/28 03:35:20;;;;;;;69.60;44.97;;;;;;;;;;5051345;28;20060;-73
2021/01/28 03:38:25;;;;;;;67.40;43.08;;;;;;;;;;5051386;28;20068;-73
2021/01/28 03:41:33;;;;;;;64.20;41.83;;;;;;;;;;5051583;28;20689;-73
2021/01/28 03:44:37;;;;;;;60.95;39.63;;;;;;;;;;5040101;28;20060;-73
2021/01/28 03:47:43;;;;;;;60.50;37.70;;;;;;;;;;5051573;28;20657;-73
2021/01/28 03:50:52;;;;;;;60.85;38.38;;;;;;;;;;5040501;28;20048;-73
2021/01/28 03:54:05;;;;;;;60.15;36.80;;;;;;;;;;5051148;28;20055;-73
2021/01/28 03:57:20;;;;;;;55.80;36.42;;;;;;;;;;5051072;28;20040;-73
2021/01/28 04:00:34;;;;;;;55.00;35.30;;;;;;;;;;5051244;28;20048;-73
2021/01/28 04:03:54;;;;;;;58.05;33.35;;;;;;;;;;5051153;28;20040;-73
2021/01/28 04:07:35;;;;;;;48.20;31.83;;;;;;;;;;5051107;28;20048;-73
2021/01/28 04:10:40;;;;;;;30.45;19.23;;;;;;;;;;5051005;28;20298;-73
2021/01/28 04:13:54;;;;;;;39.28;23.55;;;;;;;;;;5051654;28;20040;-73
2021/01/28 04:17:19;;;;;;;40.50;26.48;;;;;;;;;;5042074;28;20044;-73
2021/01/28 04:20:30;;;;;;;36.70;22.30;;;;;;;;;;5050884;28;20044;-73
2021/01/28 04:23:53;;;;;;;36.38;23.35;;;;;;;;;;5050321;28;20036;-73
2021/01/28 04:27:16;;;;;;;36.33;23.50;;;;;;;;;;5050654;28;20040;-73
2021/01/28 04:30:32;;;;;;;37.20;22.63;;;;;;;;;;5050725;28;20492;-73
2021/01/28 04:33:39;;;;;;;34.30;24.02;;;;;;;;;;5050643;28;20055;-73
2021/01/28 04:36:56;;;;;;;34.35;22.08;;;;;;;;;;5050569;28;20051;-73
2021/01/28 04:40:25;;;;;;;40.28;23.10;;;;;;;;;;5050378;28;20033;-73
2021/01/28 04:43:31;;;;;;;40.30;26.05;;;;;;;;;;5050398;28;20040;-73
2021/01/28 04:46:56;;;;;;;38.53;24.13;;;;;;;;;;5051114;28;20036;-73
2021/01/28 04:50:25;;;;;;;43.60;24.90;;;;;;;;;;5051046;28;20044;-73
2021/01/28 04:53:49;;;;;;;43.92;24.70;;;;;;;;;;5050054;28;20503;-73
2021/01/28 04:57:11;;;;;;;32.53;21.30;;;;;;;;;;5050159;28;20539;-73
2021/01/28 05:00:22;;;;;;;44.15;24.40;;;;;;;;;;5050129;28;20052;-73
2021/01/28 05:03:53;;;;;;;31.92;16.50;;;;;;;;;;5050016;28;20400;-73
2021/01/28 05:07:20;;;;;;;29.50;14.50;;;;;;;;;;5051256;28;20388;-73
2021/01/28 05:10:52;;;;;;;24.63;14.55;;;;;;;;;;5050139;28;20039;-73
2021/01/28 05:14:19;;;;;;;22.08;13.27;;;;;;;;;;5051130;28;20064;-73
2021/01/28 05:17:42;;;;;;;23.83;14.15;;;;;;;;;;5050933;28;20508;-73
2021/01/28 05:21:11;;;;;;;21.80;13.35;;;;;;;;;;5049907;28;20380;-73
2021/01/28 05:24:24;;;;;;;29.77;15.43;;;;;;;;;;5050369;28;20047;-73
2021/01/28 05:27:33;;;;;;;26.10;15.82;;;;;;;;;;5050180;28;20789;-73
2021/01/28 05:30:41;;;;;;;23.40;14.10;;;;;;;;;;5049999;28;20043;-73
2021/01/28 05:33:46;;;;;;;25.17;14.63;;;;;;;;;;5050660;28;20495;-73
2021/01/28 05:37:25;;;;;;;26.10;16.55;;;;;;;;;;5052672;28;20059;-72
2021/01/28 05:40:39;;;;;;;25.00;14.52;;;;;;;;;;5054550;28;20052;-73
2021/01/28 05:43:55;;;;;;;25.88;15.93;;;;;;;;;;5053771;28;20400;-73
2021/01/28 05:47:12;;;;;;;26.02;15.50;;;;;;;;;;5054495;28;20499;-73
2021/01/28 05:51:12;;;;;;;29.73;15.48;;;;;;;;;;5052929;28;20040;-73
2021/01/28 05:54:20;;;;;;;28.75;18.30;;;;;;;;;;5053780;28;20423;-73
2021/01/28 05:57:45;;;;;;;27.40;15.55;;;;;;;;;;5053383;28;20558;-73
2021/01/28 06:01:04;;;;;;;20.60;13.77;;;;;;;;;;5053084;28;20044;-73
2021/01/28 06:04:21;;;;;;;30.05;14.90;;;;;;;;;;5053299;28;20040;-74
2021/01/28 06:08:03;;;;;;;23.85;12.88;;;;;;;;;;5054528;28;20503;-73
2021/01/28 06:11:25;;;;;;;19.08;11.00;;;;;;;;;;5053395;28;20044;-74
2021/01/28 06:14:37;;;;;;;29.65;11.65;;;;;;;;;;5042890;28;20044;-73
2021/01/28 06:18:05;;;;;;;27.88;13.85;;;;;;;;;;5043070;28;20047;-73
2021/01/28 06:21:59;;;;;;;18.63;10.00;;;;;;;;;;5052739;28;20507;-73
2021/01/28 06:25:41;;;;;;;21.25;11.50;;;;;;;;;;5053908;28;20040;-73
2021/01/28 06:29:04;;;;;;;33.97;12.93;;;;;;;;;;5052963;28;20048;-73
2021/01/28 06:32:15;;;;;;;24.83;12.32;;;;;;;;;;5053365;28;20388;-73
2021/01/28 06:35:48;;;;;;;23.42;12.02;;;;;;;;;;5053391;28;20068;-73
2021/01/28 06:39:10;;;;;;;20.08;11.35;;;;;;;;;;5053642;28;20040;-72
2021/01/28 06:42:35;;;;;;;24.50;10.95;;;;;;;;;;5052974;28;20036;-73
2021/01/28 06:45:57;;;;;;;34.58;13.38;;;;;;;;;;5052012;28;20044;-73
2021/01/28 06:49:15;;;;;;;34.05;14.45;;;;;;;;;;5052456;28;20043;-73
2021/01/28 06:52:44;;;;;;;29.58;15.02;;;;;;;;;;5051539;28;20051;-74
2021/01/28 06:55:59;;;;;;;53.70;21.00;;;;;;;;;;5041280;28;20076;-73
2021/01/28 06:59:41;;;;;;;107.55;45.58;;;;;;;;;;5053027;28;20052;-73
2021/01/28 07:03:08;;;;;;;146.23;65.15;;;;;;;;;;5052039;28;20044;-75
2021/01/28 07:06:40;;;;;;;200.30;96.47;;;;;;;;;;5052187;28;20040;-75
2021/01/28 07:09:48;;;;;;;223.18;100.70;;;;;;;;;;5051854;28;20052;-75
2021/01/28 07:12:54;;;;;;;190.68;88.82;;;;;;;;;;5051949;28;20048;-74
2021/01/28 07:16:23;;;;;;;428.40;227.73;;;;;;;;;;5052934;28;20056;-71
2021/01/28 07:19:32;;;;;;;180.80;82.78;;;;;;;;;;5052655;28;20051;-75
2021/01/28 07:22:41;;;;;;;159.55;76.57;;;;;;;;;;5051193;28;20104;-75
2021/01/28 07:26:11;;;;;;;136.20;61.83;;;;;;;;;;5052046;28;20064;-71
2021/01/28 07:29:28;;;;;;;103.13;46.17;;;;;;;;;;5052154;28;20040;-74
2021/01/28 07:32:35;;;;;;;71.20;33.03;;;;;;;;;;5051098;28;20048;-73
2021/01/28 07:35:55;;;;;;;20.23;11.90;;;;;;;;;;5041753;28;20051;-71
2021/01/28 07:39:32;;;;;;;32.13;12.43;;;;;;;;;;5052333;28;20048;-71
2021/01/28 07:43:01;;;;;;;29.83;15.13;;;;;;;;;;5051816;28;20039;-72
2021/01/28 07:46:17;;;;;;;47.83;20.95;;;;;;;;;;5051925;28;20400;-72
2021/01/28 07:49:36;;;;;;;42.17;24.35;;;;;;;;;;5050655;28;20487;-73
2021/01/28 07:53:24;;;;;;;45.47;23.42;;;;;;;;;;5049682;28;20443;-73
2021/01/28 07:56:42;;;;;;;41.95;20.17;;;;;;;;;;5052066;28;20048;-72
2021/01/28 07:59:54;;;;;;;41.92;22.45;;;;;;;;;;5050850;28;20044;-73
2021/01/28 08:03:01;;;;;;;53.33;25.52;;;;;;;;;;5051915;28;20047;-74
2021/01/28 08:06:11;;;;;;;43.78;22.55;;;;;;;;;;5051914;28;20052;-73
2021/01/28 08:09:15;;;;;;;36.80;21.83;;;;;;;;;;5051979;28;20048;-72
2021/01/28 08:12:20;;;;;;;46.00;22.70;;;;;;;;;;5051282;28;20047;-71
2021/01/28 08:15:39;;;;;;;44.08;25.02;;;;;;;;;;5050576;28;20048;-74
2021/01/28 08:18:44;;;;;;;57.47;24.40;;;;;;;;;;5051342;28;20070;-75
2021/01/28 08:21:49;;;;;;;48.88;26.02;;;;;;;;;;5051504;28;20518;-73
2021/01/28 08:24:57;;;;;;;50.90;25.92;;;;;;;;;;5051642;28;20052;-77
2021/01/28 08:28:12;;;;;;;43.35;24.02;;;;;;;;;;5051564;28;20400;-79
2021/01/28 08:31:21;;;;;;;49.65;24.88;;;;;;;;;;5051199;28;20040;-76
2021/01/28 08:34:28;;;;;;;37.80;22.55;;;;;;;;;;5051295;28;20056;-75
2021/01/28 08:37:36;;;;;;;44.58;24.13;;;;;;;;;;5039182;28;20047;-77
2021/01/28 08:40:41;;;;;;;43.63;24.20;;;;;;;;;;5050643;28;20393;-77
2021/01/28 08:43:47;;;;;;;36.17;20.80;;;;;;;;;;5051170;28;20151;-78
2021/01/28 08:47:02;;;;;;;39.33;24.20;;;;;;;;;;5051000;28;20048;-79
2021/01/28 08:50:18;;;;;;;33.13;20.30;;;;;;;;;;5050974;28;20048;-78
2021/01/28 08:53:23;;;;;;;34.63;18.92;;;;;;;;;;5052298;28;20064;-79
2021/01/28 08:56:31;;;;;;;33.65;19.60;;;;;;;;;;5051772;28;20060;-75
2021/01/28 08:59:41;;;;;;;34.75;17.27;;;;;;;;;;5051062;28;20048;-75
2021/01/28 09:02:50;;;;;;;36.78;18.10;;;;;;;;;;5050736;28;20055;-77
2021/01/28 09:05:59;;;;;;;35.55;18.90;;;;;;;;;;5049965;28;20048;-76
2021/01/28 09:09:23;;;;;;;31.58;18.05;;;;;;;;;;5052468;28;20052;-75
2021/01/28 09:12:30;;;;;;;23.23;17.33;;;;;;;;;;5042754;28;20047;-75
2021/01/28 09:15:38;;;;;;;29.30;16.73;;;;;;;;;;5054989;28;20060;-78
2021/01/28 09:18:49;;;;;;;27.50;17.90;;;;;;;;;;5054795;28;20040;-75
2021/01/28 09:21:55;;;;;;;25.30;16.60;;;;;;;;;;5054637;28;20040;-77
2021/01/28 09:25:01;;;;;;;26.55;17.08;;;;;;;;;;5054533;28;20040;-79
2021/01/28 09:28:07;;;;;;;63.45;38.63;;;;;;;;;;5054778;28;20051;-78
2021/01/28 09:31:19;;;;;;;30.85;17.02;;;;;;;;;;5054863;28;20044;-78
2021/01/28 09:34:25;;;;;;;29.50;18.75;;;;;;;;;;5054873;28;20048;-79
2021/01/28 09:37:32;;;;;;;29.85;17.40;;;;;;;;;;5054361;28;20036;-76
2021/01/28 09:40:37;;;;;;;37.20;19.63;;;;;;;;;;5054641;28;20052;-81
2021/01/28 09:43:44;;;;;;;44.90;25.42;;;;;;;;;;5054471;28;20040;-77
2021/01/28 09:47:01;;;;;;;37.05;20.50;;;;;;;;;;5054067;28;20508;-77
2021/01/28 09:50:09;;;;;;;32.17;19.67;;;;;;;;;;5054581;28;20098;-78
2021/01/28 09:53:13;;;;;;;35.17;20.15;;;;;;;;;;5054381;28;20064;-74
2021/01/28 09:56:19;;;;;;;32.38;19.70;;;;;;;;;;5054135;28;20531;-78
2021/01/28 09:59:23;;;;;;;34.88;19.30;;;;;;;;;;5054102;28;20040;-77
2021/01/28 10:02:45;;;;;;;29.05;18.02;;;;;;;;;;5053583;28;20044;-76
2021/01/28 10:05:50;;;;;;;28.48;17.42;;;;;;;;;;5053475;28;20063;-75
2021/01/28 10:08:56;;;;;;;24.50;16.50;;;;;;;;;;5053798;28;20044;-75
2021/01/28 10:12:01;;;;;;;25.02;16.42;;;;;;;;;;5053814;28;20032;-76
2021/01/28 10:15:05;;;;;;;23.95;13.63;;;;;;;;;;5053278;28;20044;-74
2021/01/28 10:18:10;;;;;;;19.58;12.30;;;;;;;;;;5052842;28;20040;-76
2021/01/28 10:21:14;;;;;;;19.05;12.18;;;;;;;;;;5052021;28;20036;-76
2021/01/28 10:24:19;;;;;;;28.35;14.48;;;;;;;;;;5053453;28;20036;-80
2021/01/28 10:27:24;;;;;;;18.85;12.18;;;;;;;;;;5053607;28;20040;-76
2021/01/28 10:30:28;;;;;;;22.13;10.60;;;;;;;;;;5053613;28;20045;-76
2021/01/28 10:33:33;;;;;;;19.65;9.57;;;;;;;;;;5053351;28;20036;-76
2021/01/28 10:36:38;;;;;;;16.85;8.30;;;;;;;;;;5053502;28;20045;-76
2021/01/28 10:39:42;;;;;;;18.98;8.45;;;;;;;;;;5053179;28;20365;-75
2021/01/28 10:42:47;;;;;;;13.02;8.10;;;;;;;;;;5053494;28;20029;-76
2021/01/28 10:45:51;;;;;;;15.73;8.00;;;;;;;;;;5053536;28;20037;-76
2021/01/28 10:48:55;;;;;;;20.17;8.27;;;;;;;;;;5053296;28;20044;-76
2021/01/28 10:52:00;;;;;;;13.80;7.82;;;;;;;;;;5053205;28;20045;-76
2021/01/28 10:55:05;;;;;;;13.65;8.73;;;;;;;;;;5052555;28;20052;-76
2021/01/28 10:58:10;;;;;;;15.65;6.93;;;;;;;;;;5053099;28;20033;-76
2021/01/28 11:01:14;;;;;;;8.90;5.00;;;;;;;;;;5053070;28;20044;-76
2021/01/28 11:04:19;;;;;;;12.25;5.15;;;;;;;;;;5053192;28;20029;-76
2021/01/28 11:07:23;;;;;;;8.95;5.30;;;;;;;;;;5053163;28;20036;-75
2021/01/28 11:10:37;;;;;;;8.23;5.43;;;;;;;;;;5053432;28;20037;-76
2021/01/28 11:13:42;;;;;;;13.50;5.30;;;;;;;;;;5053521;28;20045;-76
2021/01/28 11:16:46;;;;;;;9.75;5.20;;;;;;;;;;5052025;28;20045;-75
2021/01/28 11:19:53;;;;;;;11.95;6.18;;;;;;;;;;5053118;28;20473;-75
2021/01/28 11:23:00;;;;;;;7.28;5.72;;;;;;;;;;5052795;28;20492;-75
2021/01/28 11:26:05;;;;;;;17.67;7.60;;;;;;;;;;5052876;28;20040;-75
2021/01/28 11:29:13;;;;;;;7.90;5.50;;;;;;;;;;5053794;28;20040;-76
2021/01/28 11:32:17;;;;;;;11.73;5.82;;;;;;;;;;5051341;28;20038;-76
2021/01/28 11:35:23;;;;;;;12.27;5.53;;;;;;;;;;5052642;28;20049;-76
2021/01/28 11:38:27;;;;;;;10.85;4.55;;;;;;;;;;5052059;28;20037;-76
2021/01/28 11:41:49;;;;;;;10.02;3.72;;;;;;;;;;5051388;28;20148;-76
2021/01/28 11:44:53;;;;;;;10.52;4.15;;;;;;;;;;5051962;28;20378;-75
2021/01/28 11:47:58;;;;;;;15.05;7.53;;;;;;;;;;5052009;28;20045;-76
2021/01/28 11:51:03;;;;;;;12.45;6.90;;;;;;;;;;5051705;28;20029;-76
2021/01/28 11:54:07;;;;;;;16.33;7.20;;;;;;;;;;5051294;28;20049;-75
2021/01/28 11:57:12;;;;;;;8.68;5.43;;;;;;;;;;5052061;28;20040;-76
2021/01/28 12:00:17;;;;;;;13.18;5.65;;;;;;;;;;5051995;28;20041;-75
2021/01/28 12:03:21;;;;;;;6.93;4.38;;;;;;;;;;5051653;28;20036;-76
2021/01/28 12:06:26;;;;;;;11.50;5.32;;;;;;;;;;5050741;28;20033;-76
2021/01/28 12:09:31;;;;;;;8.70;5.88;;;;;;;;;;5050963;28;20037;-76
2021/01/28 12:12:37;;;;;;;13.32;6.03;;;;;;;;;;5050827;28;20037;-76
2021/01/28 12:15:53;;;;;;;13.57;5.70;;;;;;;;;;5051497;28;20045;-75
2021/01/28 12:18:58;;;;;;;16.70;5.78;;;;;;;;;;5051486;28;20477;-76
2021/01/28 12:22:03;;;;;;;13.77;6.28;;;;;;;;;;5050560;28;20037;-76
2021/01/28 12:25:07;;;;;;;8.77;5.32;;;;;;;;;;5051311;28;20033;-76
2021/01/28 12:28:12;;;;;;;7.18;4.68;;;;;;;;;;5050382;28;20037;-76
2021/01/28 12:31:18;;;;;;;12.63;4.43;;;;;;;;;;5048955;28;20045;-76
2021/01/28 12:34:23;;;;;;;9.18;4.70;;;;;;;;;;5051360;28;20378;-76
2021/01/28 12:37:27;;;;;;;6.95;4.32;;;;;;;;;;5050624;28;20045;-77
2021/01/28 12:40:32;;;;;;;9.07;4.15;;;;;;;;;;5051122;28;20033;-77
2021/01/28 12:43:37;;;;;;;7.13;4.65;;;;;;;;;;5051152;28;20040;-77
2021/01/28 12:46:41;;;;;;;15.20;6.00;;;;;;;;;;5050318;28;20033;-77
2021/01/28 12:49:46;;;;;;;11.43;4.78;;;;;;;;;;5051272;28;20060;-77
2021/01/28 12:52:50;;;;;;;7.95;5.15;;;;;;;;;;5051037;28;20045;-76
2021/01/28 12:55:55;;;;;;;8.85;4.80;;;;;;;;;;5050201;28;20064;-77
2021/01/28 12:59:00;;;;;;;13.18;4.40;;;;;;;;;;5051015;28;20516;-77
2021/01/28 13:02:04;;;;;;;8.77;4.32;;;;;;;;;;5051257;28;20041;-74
2021/01/28 13:05:09;;;;;;;7.47;4.10;;;;;;;;;;5050947;28;20041;-76
2021/01/28 13:08:14;;;;;;;11.27;4.72;;;;;;;;;;5051115;28;20041;-75
2021/01/28 13:11:19;;;;;;;9.38;4.88;;;;;;;;;;5051129;28;20040;-75
2021/01/28 13:14:27;;;;;;;11.32;4.70;;;;;;;;;;5050567;28;20033;-75
2021/01/28 13:17:31;;;;;;;11.23;5.28;;;;;;;;;;5051101;28;20398;-75
2021/01/28 13:20:36;;;;;;;11.50;5.07;;;;;;;;;;5051913;28;20041;-79
2021/01/28 13:23:43;;;;;;;9.15;4.68;;;;;;;;;;5051117;28;20037;-75
2021/01/28 13:26:47;;;;;;;20.55;5.60;;;;;;;;;;5051513;28;20481;-76
2021/01/28 13:29:51;;;;;;;12.10;5.75;;;;;;;;;;5050305;28;20377;-75
2021/01/28 13:32:56;;;;;;;10.88;5.13;;;;;;;;;;5051525;28;20041;-77
2021/01/28 13:36:00;;;;;;;7.20;4.05;;;;;;;;;;5050963;28;20493;-75
2021/01/28 13:39:05;;;;;;;9.00;4.13;;;;;;;;;;5050053;28;20041;-77
2021/01/28 13:42:09;;;;;;;11.90;3.80;;;;;;;;;;5050760;28;20033;-78
2021/01/28 13:45:14;;;;;;;7.28;4.15;;;;;;;;;;5050904;28;20040;-77
2021/01/28 13:48:18;;;;;;;7.68;3.90;;;;;;;;;;5050702;28;20033;-76
2021/01/28 13:51:23;;;;;;;8.70;4.40;;;;;;;;;;5050321;28;20041;-72
2021/01/28 13:54:27;;;;;;;7.93;4.65;;;;;;;;;;5050660;28;20045;-74
2021/01/28 13:57:31;;;;;;;11.02;4.90;;;;;;;;;;5053977;28;20041;-75
2021/01/28 14:00:38;;;;;;;7.70;5.20;;;;;;;;;;5054244;28;20584;-74
2021/01/28 14:03:54;;;;;;;11.18;4.57;;;;;;;;;;5054292;28;20045;-77
2021/01/28 14:07:00;;;;;;;8.10;4.63;;;;;;;;;;5054260;28;20037;-77
2021/01/28 14:10:05;;;;;;;8.10;4.40;;;;;;;;;;5054254;28;20041;-76
2021/01/28 14:13:12;;;;;;;11.75;5.65;;;;;;;;;;5053929;28;20033;-76
2021/01/28 14:16:17;;;;;;;9.38;4.65;;;;;;;;;;5053950;28;20053;-75
2021/01/28 14:19:21;;;;;;;6.95;4.70;;;;;;;;;;5053322;28;20382;-76
2021/01/28 14:22:25;;;;;;;7.13;4.00;;;;;;;;;;5053864;28;20045;-75
2021/01/28 14:25:31;;;;;;;12.93;5.25;;;;;;;;;;5053937;28;20040;-76
2021/01/28 14:28:35;;;;;;;10.77;5.22;;;;;;;;;;5053935;28;20540;-81
2021/01/28 14:31:40;;;;;;;7.18;3.83;;;;;;;;;;5053792;28;20037;-79
2021/01/28 14:34:44;;;;;;;6.97;3.78;;;;;;;;;;5053836;28;20033;-77
2021/01/28 14:37:49;;;;;;;12.10;4.55;;;;;;;;;;5052706;28;20045;-76
2021/01/28 14:40:53;;;;;;;9.35;4.10;;;;;;;;;;5053657;28;20037;-78
2021/01/28 14:43:58;;;;;;;8.70;4.72;;;;;;;;;;5052650;28;20033;-76
2021/01/28 14:47:02;;;;;;;9.13;3.85;;;;;;;;;;5053468;28;20037;-73
2021/01/28 14:50:08;;;;;;;11.85;5.75;;;;;;;;;;5053189;28;20041;-73
2021/01/28 14:53:12;;;;;;;11.73;5.18;;;;;;;;;;5053098;28;20044;-73
2021/01/28 14:56:16;;;;;;;11.63;4.43;;;;;;;;;;5052826;28;20512;-73
2021/01/28 14:59:20;;;;;;;10.82;4.32;;;;;;;;;;5053500;28;20036;-74
2021/01/28 15:02:25;;;;;;;9.40;4.65;;;;;;;;;;5052920;28;20037;-73
2021/01/28 15:05:30;;;;;;;10.02;4.18;;;;;;;;;;5053013;28;20045;-79
2021/01/28 15:08:34;;;;;;;7.72;4.50;;;;;;;;;;5052788;28;20041;-73
2021/01/28 15:11:38;;;;;;;6.72;3.80;;;;;;;;;;5053024;28;20040;-76
2021/01/28 15:14:43;;;;;;;11.35;5.57;;;;;;;;;;5053019;28;20040;-76
2021/01/28 15:17:47;;;;;;;7.88;4.60;;;;;;;;;;5051970;28;20497;-76
2021/01/28 15:20:52;;;;;;;10.00;4.80;;;;;;;;;;5052918;28;20045;-75
2021/01/28 15:23:57;;;;;;;11.68;4.68;;;;;;;;;;5052835;28;20041;-73
2021/01/28 15:27:01;;;;;;;14.80;5.07;;;;;;;;;;5052501;28;20099;-73
2021/01/28 15:30:06;;;;;;;16.00;5.57;;;;;;;;;;5052338;28;20041;-77
2021/01/28 15:33:11;;;;;;;11.30;4.75;;;;;;;;;;5052318;28;20033;-74
2021/01/28 15:36:15;;;;;;;17.52;6.03;;;;;;;;;;5052139;28;20048;-73
2021/01/28 15:39:20;;;;;;;24.25;10.82;;;;;;;;;;5052237;28;20040;-75
2021/01/28 15:42:24;;;;;;;25.60;11.27;;;;;;;;;;5051798;28;20048;-72
2021/01/28 15:45:31;;;;;;;20.73;10.57;;;;;;;;;;5051381;28;20048;-75
2021/01/28 15:48:35;;;;;;;18.67;8.73;;;;;;;;;;5051823;28;20056;-76
2021/01/28 15:51:40;;;;;;;13.45;5.75;;;;;;;;;;5051159;28;20638;-74
2021/01/28 15:54:45;;;;;;;14.70;4.90;;;;;;;;;;5051025;28;20692;-73
2021/01/28 15:57:49;;;;;;;12.05;6.03;;;;;;;;;;5051811;28;20085;-72
2021/01/28 16:00:54;;;;;;;19.27;7.50;;;;;;;;;;5050264;28;20041;-71
2021/01/28 16:03:58;;;;;;;24.48;7.30;;;;;;;;;;5051730;28;20365;-75
2021/01/28 16:07:02;;;;;;;20.65;7.65;;;;;;;;;;5051085;28;20041;-73
2021/01/28 16:10:10;;;;;;;17.50;7.70;;;;;;;;;;5051581;28;20033;-74
2021/01/28 16:13:14;;;;;;;20.05;7.53;;;;;;;;;;5051354;28;20060;-71
2021/01/28 16:16:19;;;;;;;18.48;7.32;;;;;;;;;;5051241;28;20045;-72
2021/01/28 16:19:23;;;;;;;19.80;7.68;;;;;;;;;;5050115;28;20029;-72
2021/01/28 16:22:27;;;;;;;25.45;7.78;;;;;;;;;;5038873;28;20033;-71
2021/01/28 16:25:32;;;;;;;23.63;7.85;;;;;;;;;;5050943;28;20041;-73
2021/01/28 16:28:51;;;;;;;30.30;9.05;;;;;;;;;;5051186;28;20033;-77
2021/01/28 16:31:55;;;;;;;31.38;11.63;;;;;;;;;;5051583;28;20041;-76
2021/01/28 16:35:00;;;;;;;55.80;18.77;;;;;;;;;;5051391;28;20495;-75
2021/01/28 16:38:04;;;;;;;24.75;13.27;;;;;;;;;;5050448;28;20064;-74
2021/01/28 16:41:08;;;;;;;33.92;14.38;;;;;;;;;;5051337;28;20492;-74
2021/01/28 16:44:23;;;;;;;32.33;13.50;;;;;;;;;;5050558;28;20055;-76
2021/01/28 16:47:28;;;;;;;38.00;12.13;;;;;;;;;;5050880;28;20043;-77
2021/01/28 16:50:34;;;;;;;22.67;11.60;;;;;;;;;;5050866;28;20064;-77
2021/01/28 16:53:39;;;;;;;17.88;9.85;;;;;;;;;;5050741;28;20048;-77
2021/01/28 16:56:43;;;;;;;17.17;9.48;;;;;;;;;;5050645;28;20041;-76
2021/01/28 16:59:47;;;;;;;20.48;9.75;;;;;;;;;;5050075;28;20607;-74
2021/01/28 17:02:52;;;;;;;20.10;11.93;;;;;;;;;;5050793;28;20069;-74
2021/01/28 17:05:56;;;;;;;21.83;11.50;;;;;;;;;;5050778;28;20048;-79
2021/01/28 17:09:00;;;;;;;23.90;10.07;;;;;;;;;;5051082;28;20044;-84
2021/01/28 17:12:05;;;;;;;22.13;11.25;;;;;;;;;;5050760;28;20040;-80
2021/01/28 17:15:13;;;;;;;23.60;12.88;;;;;;;;;;5050737;28;20048;-78
2021/01/28 17:18:17;;;;;;;50.38;32.85;;;;;;;;;;5050727;28;20132;-79
2021/01/28 17:21:21;;;;;;;21.48;11.32;;;;;;;;;;5050507;28;20036;-80
2021/01/28 17:24:26;;;;;;;15.65;9.15;;;;;;;;;;5051434;28;20045;-85
2021/01/28 17:27:30;;;;;;;18.60;10.18;;;;;;;;;;5050536;28;20379;-79
2021/01/28 17:30:36;;;;;;;20.10;10.82;;;;;;;;;;5053017;28;20051;-82
2021/01/28 17:33:41;;;;;;;22.08;12.13;;;;;;;;;;5054266;28;20055;-82
2021/01/28 17:36:46;;;;;;;22.80;12.90;;;;;;;;;;5054193;28;20420;-75
2021/01/28 17:39:53;;;;;;;33.08;14.73;;;;;;;;;;5054218;28;20040;-75
2021/01/28 17:43:00;;;;;;;28.83;16.45;;;;;;;;;;5053798;28;20040;-74
2021/01/28 17:46:04;;;;;;;31.33;18.00;;;;;;;;;;5053945;28;20044;-76
2021/01/28 17:49:09;;;;;;;44.42;20.30;;;;;;;;;;5054234;28;20048;-78
2021/01/28 17:52:16;;;;;;;33.92;20.38;;;;;;;;;;5054658;28;20068;-79
2021/01/28 17:55:20;;;;;;;31.08;21.05;;;;;;;;;;5054137;28;20043;-83
2021/01/28 17:58:25;;;;;;;35.35;19.83;;;;;;;;;;5053453;28;20523;-77
2021/01/28 18:01:30;;;;;;;31.65;22.50;;;;;;;;;;5053542;28;20123;-75
2021/01/28 18:04:34;;;;;;;34.08;24.25;;;;;;;;;;5052039;28;20048;-76
2021/01/28 18:07:39;;;;;;;37.15;24.05;;;;;;;;;;5053522;28;20496;-76
2021/01/28 18:10:43;;;;;;;34.35;24.10;;;;;;;;;;5053483;28;20424;-76
2021/01/28 18:13:47;;;;;;;42.25;27.05;;;;;;;;;;5052734;28;20052;-75
2021/01/28 18:16:52;;;;;;;43.35;27.52;;;;;;;;;;5052543;28;20052;-76
2021/01/28 18:19:56;;;;;;;37.72;27.15;;;;;;;;;;5052422;28;20065;-76
2021/01/28 18:23:01;;;;;;;43.63;28.48;;;;;;;;;;5053832;28;20119;-76
2021/01/28 18:26:05;;;;;;;42.78;29.48;;;;;;;;;;5053609;28;20036;-75
2021/01/28 18:29:10;;;;;;;39.75;22.73;;;;;;;;;;5053771;28;20040;-75
2021/01/28 18:32:14;;;;;;;36.13;23.02;;;;;;;;;;5053543;28;20389;-76
2021/01/28 18:35:19;;;;;;;40.22;23.90;;;;;;;;;;5053565;28;20052;-77